createdAt,value
2022-08-04T00:00:40.609Z,19.70
2022-08-04T00:03:19.799Z,19.70
2022-08-04T00:05:54.212Z,19.60
2022-08-04T00:08:40.123Z,19.60
2022-08-04T00:11:09.189Z,19.60
2022-08-04T00:13:59.799Z,19.60
2022-08-04T00:16:34.882Z,19.60
2022-08-04T00:19:07.488Z,19.60
2022-08-04T00:21:36.512Z,19.50
2022-08-04T00:24:12.390Z,19.50
2022-08-04T00:26:40.509Z,19.50
2022-08-04T00:29:07.582Z,19.50
2022-08-04T00:31:57.019Z,19.50
2022-08-04T00:34:24.399Z,19.50
2022-08-04T00:36:52.095Z,19.50
2022-08-04T00:39:19.697Z,19.50
2022-08-04T00:42:07.406Z,19.50
2022-08-04T00:44:41.457Z,19.40
2022-08-04T00:47:34.987Z,19.40
2022-08-04T00:50:02.033Z,19.40
2022-08-04T00:52:32.672Z,19.40
2022-08-04T00:55:06.947Z,19.40
2022-08-04T00:57:54.757Z,19.40
2022-08-04T01:00:22.035Z,19.40
2022-08-04T01:02:49.070Z,19.30
2022-08-04T01:05:19.232Z,19.30
2022-08-04T01:08:01.367Z,19.30
2022-08-04T01:10:41.109Z,19.20
2022-08-04T01:13:13.979Z,19.20
2022-08-04T01:16:01.170Z,19.20
2022-08-04T01:18:31.468Z,19.20
2022-08-04T01:21:04.714Z,19.20
2022-08-04T01:23:35.007Z,19.20
2022-08-04T01:26:43.424Z,19.10
2022-08-04T01:29:24.662Z,19.10
2022-08-04T01:32:01.418Z,19.10
2022-08-04T01:34:35.544Z,19.10
2022-08-04T01:37:05.427Z,19.00
2022-08-04T01:39:42.186Z,19.10
2022-08-04T01:42:10.986Z,19.00
2022-08-04T01:44:40.886Z,19.00
2022-08-04T01:47:09.131Z,19.00
2022-08-04T01:49:40.345Z,19.00
2022-08-04T01:52:09.382Z,19.00
2022-08-04T01:54:38.080Z,19.00
2022-08-04T01:57:38.270Z,19.00
2022-08-04T01:59:53.808Z,18.90
2022-08-04T02:02:24.575Z,18.90
2022-08-04T02:04:52.270Z,18.90
2022-08-04T02:07:19.530Z,18.90
2022-08-04T02:09:54.381Z,18.90
2022-08-04T02:12:22.285Z,18.90
2022-08-04T02:14:56.266Z,18.80
2022-08-04T02:17:30.269Z,18.90
2022-08-04T02:20:08.473Z,18.80
2022-08-04T02:22:40.891Z,18.80
2022-08-04T02:25:09.250Z,18.80
2022-08-04T02:28:00.577Z,18.80
2022-08-04T02:30:48.438Z,18.70
2022-08-04T02:33:18.433Z,18.70
2022-08-04T02:35:46.707Z,18.70
2022-08-04T02:38:25.500Z,18.70
2022-08-04T02:40:54.424Z,18.60
2022-08-04T02:43:51.386Z,18.60
2022-08-04T02:46:17.817Z,18.50
2022-08-04T02:48:46.719Z,18.50
2022-08-04T02:51:15.284Z,18.50
2022-08-04T02:53:43.748Z,18.50
2022-08-04T02:56:12.003Z,18.40
2022-08-04T02:58:42.296Z,18.40
2022-08-04T03:01:09.489Z,18.40
2022-08-04T03:03:59.747Z,18.40
2022-08-04T03:06:45.689Z,18.30
2022-08-04T03:09:38.081Z,18.30
2022-08-04T03:12:23.955Z,18.30
2022-08-04T03:15:09.917Z,18.20
2022-08-04T03:17:37.056Z,18.20
2022-08-04T03:20:20.457Z,18.20
2022-08-04T03:23:12.981Z,18.20
2022-08-04T03:25:57.024Z,18.10
2022-08-04T03:28:37.243Z,18.10
2022-08-04T03:31:10.513Z,18.10
2022-08-04T03:33:41.259Z,18.10
2022-08-04T03:36:31.826Z,18.00
2022-08-04T03:39:02.255Z,18.00
2022-08-04T03:41:51.893Z,18.00
2022-08-04T03:44:38.265Z,18.00
2022-08-04T03:47:20.831Z,17.90
2022-08-04T03:49:48.141Z,17.90
2022-08-04T03:52:52.798Z,18.00
2022-08-04T03:55:25.780Z,18.00
2022-08-04T03:58:02.731Z,18.00
2022-08-04T04:00:48.654Z,17.90
2022-08-04T04:03:37.858Z,17.90
2022-08-04T04:06:17.326Z,18.00
2022-08-04T04:09:04.006Z,17.90
2022-08-04T04:11:57.186Z,18.00
2022-08-04T04:14:27.958Z,18.00
2022-08-04T04:16:55.081Z,18.00
2022-08-04T04:19:40.532Z,18.10
2022-08-04T04:22:18.541Z,18.10
2022-08-04T04:24:51.789Z,18.10
2022-08-04T04:27:28.184Z,18.20
2022-08-04T04:30:02.930Z,18.20
2022-08-04T04:32:48.760Z,18.20
2022-08-04T04:35:22.118Z,18.20
2022-08-04T04:37:55.294Z,18.30
2022-08-04T04:40:25.414Z,18.30
2022-08-04T04:42:59.513Z,18.40
2022-08-04T04:45:31.327Z,18.30
2022-08-04T04:48:08.596Z,18.40
2022-08-04T04:50:56.140Z,18.40
2022-08-04T04:53:42.041Z,18.40
2022-08-04T04:56:14.944Z,18.50
2022-08-04T04:58:43.171Z,18.50
2022-08-04T05:01:16.380Z,18.50
2022-08-04T05:04:15.828Z,18.60
2022-08-04T05:06:54.333Z,18.70
2022-08-04T05:09:42.409Z,18.70
2022-08-04T05:14:33.053Z,18.70
2022-08-04T05:15:07.820Z,18.80
2022-08-04T05:17:40.218Z,18.80
2022-08-04T05:20:13.458Z,18.90
2022-08-04T05:22:44.754Z,18.90
2022-08-04T05:25:19.552Z,18.90
2022-08-04T05:27:50.677Z,19.00
2022-08-04T05:30:18.599Z,19.00
2022-08-04T05:32:50.623Z,19.10
2022-08-04T05:35:47.872Z,19.10
2022-08-04T05:38:15.873Z,19.20
2022-08-04T05:40:43.947Z,19.20
2022-08-04T05:43:12.847Z,19.30
2022-08-04T05:45:40.491Z,19.30
2022-08-04T05:48:09.292Z,19.40
2022-08-04T05:50:36.416Z,19.40
2022-08-04T05:53:04.122Z,19.50
2022-08-04T05:55:58.420Z,19.50
2022-08-04T05:58:20.150Z,19.60
2022-08-04T06:00:51.712Z,19.60
2022-08-04T06:03:19.955Z,19.80
2022-08-04T06:05:47.988Z,19.70
2022-08-04T06:08:15.198Z,19.80
2022-08-04T06:10:43.418Z,19.90
2022-08-04T06:13:49.325Z,20.00
2022-08-04T06:16:01.564Z,20.20
2022-08-04T06:18:58.545Z,20.20
2022-08-04T06:21:19.172Z,20.40
2022-08-04T06:23:53.779Z,20.50
2022-08-04T06:26:28.967Z,20.50
2022-08-04T06:28:57.429Z,20.70
2022-08-04T06:32:27.635Z,20.60
2022-08-04T06:34:31.151Z,20.70
2022-08-04T06:36:59.384Z,20.80
2022-08-04T06:39:28.168Z,20.90
2022-08-04T06:42:21.829Z,21.10
2022-08-04T06:44:46.988Z,21.20
2022-08-04T06:47:14.438Z,21.20
2022-08-04T06:51:28.607Z,21.30
2022-08-04T06:52:29.190Z,21.40
2022-08-04T06:54:58.274Z,21.40
2022-08-04T06:57:27.351Z,21.50
2022-08-04T06:59:57.440Z,21.70
2022-08-04T07:02:26.847Z,21.90
2022-08-04T07:04:54.132Z,21.90
2022-08-04T07:07:21.570Z,22.00
2022-08-04T07:10:04.240Z,22.10
2022-08-04T07:12:31.618Z,22.10
2022-08-04T07:14:58.944Z,22.10
2022-08-04T07:17:28.814Z,22.30
2022-08-04T07:20:02.073Z,22.50
2022-08-04T07:22:29.719Z,22.60
2022-08-04T07:24:57.691Z,22.90
2022-08-04T07:27:48.554Z,23.00
2022-08-04T07:30:13.051Z,23.00
2022-08-04T07:32:41.668Z,23.00
2022-08-04T07:35:09.423Z,23.20
2022-08-04T07:37:56.615Z,23.40
2022-08-04T07:40:26.123Z,23.50
2022-08-04T07:42:53.370Z,23.40
2022-08-04T07:45:21.637Z,23.50
2022-08-04T07:48:04.908Z,23.80
2022-08-04T07:50:33.933Z,23.80
2022-08-04T07:53:52.918Z,24.30
2022-08-04T07:55:48.971Z,24.30
2022-08-04T07:58:16.115Z,24.20
2022-08-04T08:00:44.893Z,24.20
2022-08-04T08:03:12.340Z,24.20
2022-08-04T08:06:17.962Z,24.20
2022-08-04T08:08:26.664Z,24.50
2022-08-04T08:10:54.066Z,24.70
2022-08-04T08:13:21.335Z,24.80
2022-08-04T08:15:48.559Z,24.80
2022-08-04T08:18:16.243Z,24.80
2022-08-04T08:20:47.074Z,24.90
2022-08-04T08:23:14.334Z,24.80
2022-08-04T08:25:41.544Z,24.90
2022-08-04T08:28:08.789Z,25.40
2022-08-04T08:30:35.945Z,25.10
2022-08-04T08:33:07.992Z,25.20
2022-08-04T08:35:53.347Z,25.40
2022-08-04T08:38:26.140Z,25.60
2022-08-04T08:40:56.566Z,25.60
2022-08-04T08:44:05.789Z,25.70
2022-08-04T08:46:52.609Z,25.80
2022-08-04T08:50:00.604Z,26.00
2022-08-04T08:52:57.311Z,25.90
2022-08-04T08:55:51.086Z,26.00
2022-08-04T08:58:18.181Z,26.30
2022-08-04T09:00:54.003Z,26.10
2022-08-04T09:03:40.585Z,26.10
2022-08-04T09:06:26.194Z,26.40
2022-08-04T09:09:05.771Z,26.30
2022-08-04T09:11:56.136Z,26.70
2022-08-04T09:14:35.262Z,26.60
2022-08-04T09:17:13.555Z,26.50
2022-08-04T09:19:46.038Z,26.60
2022-08-04T09:22:33.231Z,26.80
2022-08-04T09:25:03.057Z,26.90
2022-08-04T09:27:39.363Z,26.90
2022-08-04T09:30:07.757Z,26.80
2022-08-04T09:32:47.355Z,26.80
2022-08-04T09:35:26.748Z,26.80
2022-08-04T09:37:58.593Z,26.80
2022-08-04T09:40:29.291Z,26.90
2022-08-04T09:43:09.423Z,27.00
2022-08-04T09:45:44.370Z,26.90
2022-08-04T09:48:14.566Z,27.00
2022-08-04T09:50:48.185Z,27.00
2022-08-04T09:53:36.080Z,27.10
2022-08-04T09:56:03.778Z,27.20
2022-08-04T09:58:37.568Z,27.20
2022-08-04T10:01:06.989Z,27.20
2022-08-04T10:03:37.352Z,27.10
2022-08-04T10:06:20.918Z,27.40
2022-08-04T10:09:01.376Z,27.90
2022-08-04T10:11:56.253Z,27.90
2022-08-04T10:14:33.120Z,28.10
2022-08-04T10:17:22.304Z,28.00
2022-08-04T10:20:09.105Z,27.70
2022-08-04T10:23:09.154Z,27.70
2022-08-04T10:26:07.732Z,27.70
2022-08-04T10:28:35.878Z,27.90
2022-08-04T10:31:05.074Z,28.10
2022-08-04T10:33:37.621Z,27.60
2022-08-04T10:36:06.710Z,27.50
2022-08-04T10:38:40.842Z,27.50
2022-08-04T10:41:34.361Z,27.80
2022-08-04T10:44:23.590Z,27.70
2022-08-04T10:47:02.658Z,27.60
2022-08-04T10:49:32.931Z,27.80
2022-08-04T10:52:06.471Z,27.90
2022-08-04T10:54:55.307Z,28.10
2022-08-04T10:58:01.086Z,28.20
2022-08-04T11:00:29.127Z,27.80
2022-08-04T11:02:59.826Z,27.00
2022-08-04T11:05:43.688Z,27.00
2022-08-04T11:08:25.681Z,26.70
2022-08-04T11:10:52.805Z,26.40
2022-08-04T11:13:22.197Z,26.30
2022-08-04T11:15:59.115Z,26.40
2022-08-04T11:18:46.802Z,26.40
2022-08-04T11:21:28.585Z,27.10
2022-08-04T11:24:09.118Z,27.40
2022-08-04T11:26:45.172Z,27.80
2022-08-04T11:29:18.490Z,28.10
2022-08-04T11:31:51.504Z,28.20
2022-08-04T11:34:24.155Z,28.20
2022-08-04T11:36:55.124Z,28.20
2022-08-04T11:39:22.350Z,28.00
2022-08-04T11:41:49.544Z,28.30
2022-08-04T11:44:19.827Z,28.50
2022-08-04T11:46:49.191Z,28.20
2022-08-04T11:49:22.427Z,28.40
2022-08-04T11:51:50.773Z,28.60
2022-08-04T11:54:19.247Z,28.30
2022-08-04T11:56:46.674Z,28.40
2022-08-04T11:59:14.194Z,28.30
2022-08-04T12:02:10.811Z,28.40
2022-08-04T12:04:40.650Z,28.60
2022-08-04T12:07:40.670Z,29.00
2022-08-04T12:10:15.818Z,28.80
2022-08-04T12:13:18.736Z,28.80
2022-08-04T12:16:08.826Z,28.80
2022-08-04T12:18:42.967Z,29.10
2022-08-04T12:21:29.686Z,29.00
2022-08-04T12:24:01.893Z,29.00
2022-08-04T12:26:31.127Z,28.90
2022-08-04T12:29:10.794Z,28.80
2022-08-04T12:31:49.510Z,28.90
2022-08-04T12:34:31.055Z,28.90
2022-08-04T12:37:13.034Z,29.10
2022-08-04T12:40:21.734Z,29.00
2022-08-04T12:42:37.266Z,29.20
2022-08-04T12:45:07.392Z,29.10
2022-08-04T12:47:35.388Z,29.30
2022-08-04T12:50:04.059Z,29.40
2022-08-04T12:55:30.146Z,29.10
2022-08-04T12:57:58.664Z,29.00
2022-08-04T13:00:31.019Z,29.00
2022-08-04T13:03:02.558Z,28.90
2022-08-04T13:05:30.874Z,28.90
2022-08-04T13:07:58.500Z,29.20
2022-08-04T13:10:29.971Z,29.20
2022-08-04T13:12:59.436Z,29.20
2022-08-04T13:15:28.343Z,29.20
2022-08-04T13:17:57.034Z,29.10
2022-08-04T13:20:25.747Z,29.20
2022-08-04T13:22:59.478Z,29.20
2022-08-04T13:26:42.821Z,29.40
2022-08-04T13:28:16.969Z,29.30
2022-08-04T13:30:45.940Z,29.40
2022-08-04T13:33:14.608Z,29.50
2022-08-04T13:35:55.516Z,29.40
2022-08-04T13:38:24.358Z,29.20
2022-08-04T13:40:52.403Z,29.10
2022-08-04T13:44:15.520Z,29.00
2022-08-04T13:46:28.013Z,29.10
2022-08-04T13:49:28.355Z,29.10
2022-08-04T13:51:58.185Z,29.30
2022-08-04T13:54:46.274Z,29.40
2022-08-04T13:57:17.438Z,29.30
2022-08-04T13:59:49.187Z,29.30
2022-08-04T14:02:31.649Z,29.40
2022-08-04T14:05:02.009Z,29.60
2022-08-04T14:07:30.060Z,29.90
2022-08-04T14:10:02.852Z,29.50
2022-08-04T14:12:38.266Z,29.50
2022-08-04T14:16:01.680Z,29.70
2022-08-04T14:18:23.237Z,29.90
2022-08-04T14:20:59.361Z,30.20
2022-08-04T14:23:31.896Z,30.30
2022-08-04T14:26:00.692Z,30.30
2022-08-04T14:29:01.047Z,30.30
2022-08-04T14:31:23.734Z,30.00
2022-08-04T14:34:00.924Z,29.70
2022-08-04T14:37:16.367Z,29.60
2022-08-04T14:40:18.743Z,29.30
2022-08-04T14:42:55.377Z,29.10
2022-08-04T14:45:34.026Z,28.80
2022-08-04T14:48:01.928Z,29.10
2022-08-04T14:50:38.476Z,29.10
2022-08-04T14:53:07.413Z,28.80
2022-08-04T14:55:35.051Z,28.90
2022-08-04T14:58:33.957Z,28.90
2022-08-04T15:00:50.034Z,29.10
2022-08-04T15:03:18.453Z,29.00
2022-08-04T15:06:02.267Z,28.60
2022-08-04T15:08:33.297Z,28.60
2022-08-04T15:11:03.109Z,28.50
2022-08-04T15:13:33.738Z,28.40
2022-08-04T15:16:07.882Z,28.30
2022-08-04T15:18:36.857Z,28.70
2022-08-04T15:21:04.989Z,28.50
2022-08-04T15:23:39.443Z,28.30
2022-08-04T15:26:09.533Z,28.30
2022-08-04T15:28:38.697Z,28.30
2022-08-04T15:32:01.729Z,28.50
2022-08-04T15:33:55.224Z,28.20
2022-08-04T15:36:27.802Z,28.00
2022-08-04T15:38:55.045Z,28.00
2022-08-04T15:41:54.597Z,27.90
2022-08-04T15:44:41.350Z,27.80
2022-08-04T15:47:08.434Z,28.20
2022-08-04T15:49:35.713Z,27.90
2022-08-04T15:52:04.600Z,27.80
2022-08-04T15:54:42.362Z,27.60
2022-08-04T15:57:38.986Z,27.60
2022-08-04T16:00:12.738Z,27.50
2022-08-04T16:02:43.989Z,27.80
2022-08-04T16:05:18.217Z,27.80
2022-08-04T16:08:00.182Z,27.80
2022-08-04T16:10:30.295Z,27.60
2022-08-04T16:12:58.809Z,27.50
2022-08-04T16:15:39.498Z,27.50
2022-08-04T16:18:12.257Z,27.40
2022-08-04T16:20:45.544Z,27.30
2022-08-04T16:23:52.947Z,27.30
2022-08-04T16:26:45.348Z,27.30
2022-08-04T16:29:34.298Z,27.20
2022-08-04T16:32:05.318Z,27.10
2022-08-04T16:34:48.871Z,27.00
2022-08-04T16:37:19.135Z,26.90
2022-08-04T16:39:49.549Z,27.10
2022-08-04T16:42:27.767Z,27.10
2022-08-04T16:45:07.256Z,27.10
2022-08-04T16:47:46.760Z,27.00
2022-08-04T16:50:21.324Z,26.90
2022-08-04T16:54:02.676Z,26.80
2022-08-04T16:56:33.487Z,26.80
2022-08-04T16:59:08.449Z,26.80
2022-08-04T17:01:36.150Z,26.90
2022-08-04T17:04:07.392Z,26.90
2022-08-04T17:06:36.338Z,26.80
2022-08-04T17:09:10.525Z,26.70
2022-08-04T17:11:37.748Z,26.60
2022-08-04T17:14:05.999Z,26.50
2022-08-04T17:16:34.822Z,26.50
2022-08-04T17:19:02.669Z,26.50
2022-08-04T17:21:30.982Z,26.30
2022-08-04T17:23:59.082Z,26.30
2022-08-04T17:26:52.032Z,26.20
2022-08-04T17:29:21.885Z,26.20
2022-08-04T17:31:49.096Z,26.10
2022-08-04T17:34:21.602Z,26.10
2022-08-04T17:36:48.830Z,26.10
2022-08-04T17:39:21.417Z,26.10
2022-08-04T17:41:49.622Z,26.00
2022-08-04T17:44:17.534Z,26.10
2022-08-04T17:46:48.524Z,25.90
2022-08-04T17:49:19.178Z,25.90
2022-08-04T17:54:39.343Z,25.80
2022-08-04T17:57:21.540Z,25.80
2022-08-04T17:59:58.356Z,25.70
2022-08-04T18:02:33.519Z,25.70
2022-08-04T18:05:07.826Z,25.70
2022-08-04T18:08:39.724Z,25.30
2022-08-04T18:10:46.322Z,25.10
2022-08-04T18:13:22.106Z,24.90
2022-08-04T18:15:51.400Z,24.90
2022-08-04T18:18:23.349Z,24.80
2022-08-04T18:20:51.126Z,24.70
2022-08-04T18:23:18.229Z,24.60
2022-08-04T18:25:51.219Z,24.50
2022-08-04T18:28:26.389Z,24.50
2022-08-04T18:30:55.247Z,24.40
2022-08-04T18:33:37.868Z,24.30
2022-08-04T18:36:34.418Z,24.30
2022-08-04T18:38:58.677Z,24.20
2022-08-04T18:41:51.644Z,24.20
2022-08-04T18:44:16.865Z,24.20
2022-08-04T18:46:52.927Z,24.10
2022-08-04T18:51:00.755Z,24.00
2022-08-04T18:52:15.184Z,23.90
2022-08-04T18:54:43.490Z,23.80
2022-08-04T18:57:58.553Z,23.90
2022-08-04T18:59:58.085Z,23.90
2022-08-04T19:02:27.860Z,23.80
2022-08-04T19:04:55.002Z,23.80
2022-08-04T19:07:30.077Z,23.70
2022-08-04T19:10:26.347Z,23.70
2022-08-04T19:12:54.314Z,23.60
2022-08-04T19:15:22.392Z,23.60
2022-08-04T19:18:01.796Z,23.60
2022-08-04T19:20:29.693Z,23.60
2022-08-04T19:24:26.256Z,23.50
2022-08-04T19:25:59.994Z,23.40
2022-08-04T19:28:34.337Z,23.50
2022-08-04T19:31:06.977Z,23.50
2022-08-04T19:33:55.454Z,23.40
2022-08-04T19:36:28.438Z,23.40
2022-08-04T19:39:00.552Z,23.30
2022-08-04T19:41:27.990Z,23.40
2022-08-04T19:43:55.341Z,23.30
2022-08-04T19:46:25.023Z,23.30
2022-08-04T19:48:59.387Z,23.30
2022-08-04T19:51:29.107Z,23.20
2022-08-04T19:54:02.982Z,23.20
2022-08-04T19:56:40.339Z,23.20
2022-08-04T19:59:09.691Z,23.20
2022-08-04T20:01:44.226Z,23.20
2022-08-04T20:04:12.806Z,23.20
2022-08-04T20:06:40.149Z,23.10
2022-08-04T20:09:24.459Z,23.10
2022-08-04T20:11:52.466Z,23.10
2022-08-04T20:14:31.360Z,23.10
2022-08-04T20:17:03.436Z,23.10
2022-08-04T20:27:21.446Z,23.00
2022-08-04T20:29:50.824Z,23.00
